sensor_id;sensor_type;location;lat;lon;timestamp;P1;durP1;ratioP1;P2;durP2;ratioP2
10491;SDS011;5293;51.464;-2.566;2023-04-01T00:01:50;12.53;;;4.83;;
10491;SDS011;5293;51.464;-2.566;2023-04-01T00:04:15;13.10;;;4.90;;
10491;SDS011;5293;51.464;-2.566;2023-04-01T00:06:41;9.90;;;3.90;;
10491;SDS011;5293;51.464;-2.566;2023-04-01T00:09:07;14.53;;;4.27;;
10491;SDS011;5293;51.464;-2.566;2023-04-01T00:11:33;13.20;;;5.53;;
10491;SDS011;5293;51.464;-2.566;2023-04-01T00:13:58;13.13;;;4.97;;
10491;SDS011;5293;51.464;-2.566;2023-04-01T00:16:24;13.57;;;5.30;;
10491;SDS011;5293;51.464;-2.566;2023-04-01T00:18:50;12.57;;;5.77;;
10491;SDS011;5293;51.464;-2.566;2023-04-01T00:21:16;13.70;;;5.40;;
10491;SDS011;5293;51.464;-2.566;2023-04-01T00:23:43;11.33;;;5.43;;
10491;SDS011;5293;51.464;-2.566;2023-04-01T00:26:08;14.33;;;6.07;;
10491;SDS011;5293;51.464;-2.566;2023-04-01T00:28:34;15.07;;;5.90;;
10491;SDS011;5293;51.464;-2.566;2023-04-01T00:31:05;16.40;;;6.00;;
10491;SDS011;5293;51.464;-2.566;2023-04-01T00:33:31;20.57;;;6.50;;
10491;SDS011;5293;51.464;-2.566;2023-04-01T00:36:05;10.40;;;5.60;;
10491;SDS011;5293;51.464;-2.566;2023-04-01T00:38:38;13.90;;;4.77;;
10491;SDS011;5293;51.464;-2.566;2023-04-01T00:41:04;18.77;;;5.50;;
10491;SDS011;5293;51.464;-2.566;2023-04-01T00:43:31;10.30;;;5.10;;
10491;SDS011;5293;51.464;-2.566;2023-04-01T00:45:57;15.20;;;5.17;;
10491;SDS011;5293;51.464;-2.566;2023-04-01T00:48:23;18.47;;;6.63;;
10491;SDS011;5293;51.464;-2.566;2023-04-01T00:50:58;12.77;;;4.80;;
10491;SDS011;5293;51.464;-2.566;2023-04-01T00:53:32;13.03;;;4.60;;
10491;SDS011;5293;51.464;-2.566;2023-04-01T00:56:15;18.20;;;5.43;;
10491;SDS011;5293;51.464;-2.566;2023-04-01T00:58:51;12.03;;;4.33;;
10491;SDS011;5293;51.464;-2.566;2023-04-01T01:01:22;13.20;;;4.67;;
10491;SDS011;5293;51.464;-2.566;2023-04-01T01:03:50;12.30;;;4.90;;
10491;SDS011;5293;51.464;-2.566;2023-04-01T01:12:00;16.63;;;6.20;;
10491;SDS011;5293;51.464;-2.566;2023-04-01T01:19:52;15.80;;;5.80;;
10491;SDS011;5293;51.464;-2.566;2023-04-01T01:25:12;12.47;;;5.70;;
10491;SDS011;5293;51.464;-2.566;2023-04-01T01:28:34;12.87;;;5.63;;
10491;SDS011;5293;51.464;-2.566;2023-04-01T01:33:50;12.23;;;6.10;;
10491;SDS011;5293;51.464;-2.566;2023-04-01T01:36:21;12.87;;;7.03;;
10491;SDS011;5293;51.464;-2.566;2023-04-01T01:38:48;11.90;;;6.13;;
10491;SDS011;5293;51.464;-2.566;2023-04-01T01:41:16;11.97;;;5.77;;
10491;SDS011;5293;51.464;-2.566;2023-04-01T01:43:44;13.23;;;6.27;;
10491;SDS011;5293;51.464;-2.566;2023-04-01T01:46:17;10.30;;;5.63;;
10491;SDS011;5293;51.464;-2.566;2023-04-01T01:48:47;8.77;;;4.67;;
10491;SDS011;5293;51.464;-2.566;2023-04-01T01:51:15;11.10;;;4.93;;
10491;SDS011;5293;51.464;-2.566;2023-04-01T01:53:42;9.60;;;5.17;;
10491;SDS011;5293;51.464;-2.566;2023-04-01T01:56:09;9.97;;;5.43;;
10491;SDS011;5293;51.464;-2.566;2023-04-01T01:58:47;11.43;;;5.47;;
10491;SDS011;5293;51.464;-2.566;2023-04-01T02:01:19;12.50;;;5.73;;
10491;SDS011;5293;51.464;-2.566;2023-04-01T02:03:48;15.87;;;6.83;;
10491;SDS011;5293;51.464;-2.566;2023-04-01T02:06:17;16.67;;;6.40;;
10491;SDS011;5293;51.464;-2.566;2023-04-01T02:08:47;14.73;;;6.70;;
10491;SDS011;5293;51.464;-2.566;2023-04-01T02:11:25;20.20;;;6.43;;
10491;SDS011;5293;51.464;-2.566;2023-04-01T02:16:42;13.77;;;5.83;;
10491;SDS011;5293;51.464;-2.566;2023-04-01T02:19:13;12.87;;;5.63;;
10491;SDS011;5293;51.464;-2.566;2023-04-01T02:21:41;10.20;;;6.07;;
10491;SDS011;5293;51.464;-2.566;2023-04-01T02:24:10;17.97;;;6.40;;
10491;SDS011;5293;51.464;-2.566;2023-04-01T02:26:40;16.53;;;6.03;;
10491;SDS011;5293;51.464;-2.566;2023-04-01T02:29:06;14.70;;;6.27;;
10491;SDS011;5293;51.464;-2.566;2023-04-01T02:31:34;16.07;;;5.63;;
10491;SDS011;5293;51.464;-2.566;2023-04-01T02:34:02;10.10;;;5.60;;
10491;SDS011;5293;51.464;-2.566;2023-04-01T02:36:29;18.10;;;5.97;;
10491;SDS011;5293;51.464;-2.566;2023-04-01T02:38:55;15.83;;;6.90;;
10491;SDS011;5293;51.464;-2.566;2023-04-01T02:41:27;11.83;;;4.87;;
10491;SDS011;5293;51.464;-2.566;2023-04-01T02:43:53;13.73;;;6.03;;
10491;SDS011;5293;51.464;-2.566;2023-04-01T02:46:19;17.43;;;5.97;;
10491;SDS011;5293;51.464;-2.566;2023-04-01T02:48:45;13.87;;;5.23;;
10491;SDS011;5293;51.464;-2.566;2023-04-01T02:51:11;16.87;;;6.00;;
10491;SDS011;5293;51.464;-2.566;2023-04-01T02:53:37;15.93;;;5.77;;
10491;SDS011;5293;51.464;-2.566;2023-04-01T02:56:02;9.03;;;5.70;;
10491;SDS011;5293;51.464;-2.566;2023-04-01T02:58:29;11.23;;;5.17;;
10491;SDS011;5293;51.464;-2.566;2023-04-01T03:00:55;18.20;;;4.90;;
10491;SDS011;5293;51.464;-2.566;2023-04-01T03:03:20;13.20;;;5.43;;
10491;SDS011;5293;51.464;-2.566;2023-04-01T03:05:46;7.83;;;4.60;;
10491;SDS011;5293;51.464;-2.566;2023-04-01T03:08:11;11.37;;;4.13;;
10491;SDS011;5293;51.464;-2.566;2023-04-01T03:10:37;9.37;;;4.73;;
10491;SDS011;5293;51.464;-2.566;2023-04-01T03:13:03;9.07;;;4.10;;
10491;SDS011;5293;51.464;-2.566;2023-04-01T03:15:28;8.93;;;4.37;;
10491;SDS011;5293;51.464;-2.566;2023-04-01T03:17:54;16.40;;;4.03;;
10491;SDS011;5293;51.464;-2.566;2023-04-01T03:20:20;10.40;;;4.07;;
10491;SDS011;5293;51.464;-2.566;2023-04-01T03:22:46;10.20;;;4.70;;
10491;SDS011;5293;51.464;-2.566;2023-04-01T03:25:12;9.23;;;4.13;;
10491;SDS011;5293;51.464;-2.566;2023-04-01T03:27:38;9.80;;;3.93;;
10491;SDS011;5293;51.464;-2.566;2023-04-01T03:30:04;8.90;;;3.77;;
10491;SDS011;5293;51.464;-2.566;2023-04-01T03:32:30;12.60;;;5.30;;
10491;SDS011;5293;51.464;-2.566;2023-04-01T03:34:56;10.93;;;4.60;;
10491;SDS011;5293;51.464;-2.566;2023-04-01T03:37:22;9.83;;;4.53;;
10491;SDS011;5293;51.464;-2.566;2023-04-01T03:39:48;13.50;;;4.57;;
10491;SDS011;5293;51.464;-2.566;2023-04-01T03:42:14;10.00;;;4.47;;
10491;SDS011;5293;51.464;-2.566;2023-04-01T03:44:40;11.77;;;4.87;;
10491;SDS011;5293;51.464;-2.566;2023-04-01T03:47:06;11.03;;;5.00;;
10491;SDS011;5293;51.464;-2.566;2023-04-01T03:49:32;11.20;;;4.80;;
10491;SDS011;5293;51.464;-2.566;2023-04-01T03:51:58;9.30;;;4.33;;
10491;SDS011;5293;51.464;-2.566;2023-04-01T03:54:23;8.27;;;4.70;;
10491;SDS011;5293;51.464;-2.566;2023-04-01T03:56:49;14.30;;;4.80;;
10491;SDS011;5293;51.464;-2.566;2023-04-01T03:59:15;12.03;;;4.53;;
10491;SDS011;5293;51.464;-2.566;2023-04-01T04:01:41;18.07;;;4.63;;
10491;SDS011;5293;51.464;-2.566;2023-04-01T04:04:07;13.80;;;4.37;;
10491;SDS011;5293;51.464;-2.566;2023-04-01T04:06:35;7.33;;;3.87;;
10491;SDS011;5293;51.464;-2.566;2023-04-01T04:09:01;6.27;;;3.63;;
10491;SDS011;5293;51.464;-2.566;2023-04-01T04:11:26;11.47;;;4.87;;
10491;SDS011;5293;51.464;-2.566;2023-04-01T04:13:52;8.40;;;4.23;;
10491;SDS011;5293;51.464;-2.566;2023-04-01T04:16:18;11.37;;;5.43;;
10491;SDS011;5293;51.464;-2.566;2023-04-01T04:18:43;7.93;;;4.10;;
10491;SDS011;5293;51.464;-2.566;2023-04-01T04:21:13;14.00;;;5.00;;
10491;SDS011;5293;51.464;-2.566;2023-04-01T04:23:39;11.73;;;4.10;;
10491;SDS011;5293;51.464;-2.566;2023-04-01T04:26:09;10.73;;;4.37;;
10491;SDS011;5293;51.464;-2.566;2023-04-01T04:28:37;9.63;;;4.20;;
10491;SDS011;5293;51.464;-2.566;2023-04-01T04:31:02;12.80;;;4.30;;
10491;SDS011;5293;51.464;-2.566;2023-04-01T04:33:30;11.53;;;4.47;;
10491;SDS011;5293;51.464;-2.566;2023-04-01T04:35:56;8.33;;;3.83;;
10491;SDS011;5293;51.464;-2.566;2023-04-01T04:38:23;10.50;;;4.20;;
10491;SDS011;5293;51.464;-2.566;2023-04-01T04:40:50;13.17;;;3.57;;
10491;SDS011;5293;51.464;-2.566;2023-04-01T04:43:16;13.00;;;3.53;;
10491;SDS011;5293;51.464;-2.566;2023-04-01T04:45:42;11.23;;;3.80;;
10491;SDS011;5293;51.464;-2.566;2023-04-01T04:48:09;9.90;;;3.57;;
10491;SDS011;5293;51.464;-2.566;2023-04-01T04:50:39;5.17;;;3.20;;
10491;SDS011;5293;51.464;-2.566;2023-04-01T04:53:05;8.17;;;3.70;;
10491;SDS011;5293;51.464;-2.566;2023-04-01T04:55:31;7.60;;;4.27;;
10491;SDS011;5293;51.464;-2.566;2023-04-01T04:57:56;8.73;;;4.40;;
10491;SDS011;5293;51.464;-2.566;2023-04-01T05:00:22;8.83;;;4.33;;
10491;SDS011;5293;51.464;-2.566;2023-04-01T05:02:48;8.33;;;4.00;;
10491;SDS011;5293;51.464;-2.566;2023-04-01T05:05:13;8.13;;;3.87;;
10491;SDS011;5293;51.464;-2.566;2023-04-01T05:07:39;8.50;;;4.00;;
10491;SDS011;5293;51.464;-2.566;2023-04-01T05:10:05;9.53;;;4.23;;
10491;SDS011;5293;51.464;-2.566;2023-04-01T05:12:31;8.30;;;3.80;;
10491;SDS011;5293;51.464;-2.566;2023-04-01T05:15:01;8.00;;;3.83;;
10491;SDS011;5293;51.464;-2.566;2023-04-01T05:17:28;10.47;;;4.33;;
10491;SDS011;5293;51.464;-2.566;2023-04-01T05:19:53;9.00;;;4.40;;
10491;SDS011;5293;51.464;-2.566;2023-04-01T05:22:19;12.93;;;4.00;;
10491;SDS011;5293;51.464;-2.566;2023-04-01T05:24:45;6.83;;;3.77;;
10491;SDS011;5293;51.464;-2.566;2023-04-01T05:27:10;12.40;;;4.53;;
10491;SDS011;5293;51.464;-2.566;2023-04-01T05:29:36;15.93;;;4.50;;
10491;SDS011;5293;51.464;-2.566;2023-04-01T05:32:02;10.83;;;4.33;;
10491;SDS011;5293;51.464;-2.566;2023-04-01T05:34:27;8.73;;;4.07;;
10491;SDS011;5293;51.464;-2.566;2023-04-01T05:36:53;11.37;;;4.70;;
10491;SDS011;5293;51.464;-2.566;2023-04-01T05:39:19;10.77;;;4.53;;
10491;SDS011;5293;51.464;-2.566;2023-04-01T05:41:44;10.87;;;3.90;;
10491;SDS011;5293;51.464;-2.566;2023-04-01T05:44:11;8.37;;;4.00;;
10491;SDS011;5293;51.464;-2.566;2023-04-01T05:46:37;9.93;;;3.87;;
10491;SDS011;5293;51.464;-2.566;2023-04-01T05:49:03;11.23;;;3.50;;
10491;SDS011;5293;51.464;-2.566;2023-04-01T05:51:29;7.83;;;3.33;;
10491;SDS011;5293;51.464;-2.566;2023-04-01T05:53:54;8.97;;;3.97;;
10491;SDS011;5293;51.464;-2.566;2023-04-01T05:56:20;6.20;;;3.63;;
10491;SDS011;5293;51.464;-2.566;2023-04-01T05:58:50;8.37;;;4.23;;
10491;SDS011;5293;51.464;-2.566;2023-04-01T06:01:18;7.43;;;4.03;;
10491;SDS011;5293;51.464;-2.566;2023-04-01T06:03:44;7.97;;;4.07;;
10491;SDS011;5293;51.464;-2.566;2023-04-01T06:06:12;9.90;;;4.73;;
10491;SDS011;5293;51.464;-2.566;2023-04-01T06:08:58;9.73;;;4.53;;
10491;SDS011;5293;51.464;-2.566;2023-04-01T06:19:58;8.10;;;4.53;;
10491;SDS011;5293;51.464;-2.566;2023-04-01T06:22:51;12.27;;;4.93;;
10491;SDS011;5293;51.464;-2.566;2023-04-01T06:26:04;13.93;;;4.60;;
10491;SDS011;5293;51.464;-2.566;2023-04-01T06:31:05;15.63;;;5.43;;
10491;SDS011;5293;51.464;-2.566;2023-04-01T06:39:41;19.20;;;5.03;;
10491;SDS011;5293;51.464;-2.566;2023-04-01T06:42:16;11.27;;;4.77;;
10491;SDS011;5293;51.464;-2.566;2023-04-01T06:50:17;10.23;;;3.90;;
10491;SDS011;5293;51.464;-2.566;2023-04-01T06:58:06;9.47;;;3.90;;
10491;SDS011;5293;51.464;-2.566;2023-04-01T07:00:51;15.90;;;4.57;;
10491;SDS011;5293;51.464;-2.566;2023-04-01T07:03:32;11.77;;;4.77;;
10491;SDS011;5293;51.464;-2.566;2023-04-01T07:06:05;12.70;;;4.77;;
10491;SDS011;5293;51.464;-2.566;2023-04-01T07:08:50;10.47;;;5.00;;
10491;SDS011;5293;51.464;-2.566;2023-04-01T07:11:26;13.27;;;5.30;;
10491;SDS011;5293;51.464;-2.566;2023-04-01T07:13:59;10.67;;;5.13;;
10491;SDS011;5293;51.464;-2.566;2023-04-01T07:16:34;15.13;;;5.40;;
10491;SDS011;5293;51.464;-2.566;2023-04-01T07:19:06;15.43;;;6.00;;
10491;SDS011;5293;51.464;-2.566;2023-04-01T07:21:47;11.17;;;4.93;;
10491;SDS011;5293;51.464;-2.566;2023-04-01T07:24:26;16.93;;;5.73;;
10491;SDS011;5293;51.464;-2.566;2023-04-01T07:26:54;20.13;;;4.90;;
10491;SDS011;5293;51.464;-2.566;2023-04-01T07:29:21;19.93;;;5.50;;
10491;SDS011;5293;51.464;-2.566;2023-04-01T07:40:18;9.53;;;4.37;;
10491;SDS011;5293;51.464;-2.566;2023-04-01T07:45:37;11.77;;;5.50;;
10491;SDS011;5293;51.464;-2.566;2023-04-01T07:56:15;10.50;;;4.83;;
10491;SDS011;5293;51.464;-2.566;2023-04-01T08:04:25;10.80;;;4.57;;
10491;SDS011;5293;51.464;-2.566;2023-04-01T08:07:17;11.40;;;4.67;;
10491;SDS011;5293;51.464;-2.566;2023-04-01T08:22:09;7.33;;;3.00;;
10491;SDS011;5293;51.464;-2.566;2023-04-01T08:24:43;3.53;;;2.13;;
10491;SDS011;5293;51.464;-2.566;2023-04-01T08:27:33;3.73;;;1.87;;
10491;SDS011;5293;51.464;-2.566;2023-04-01T08:32:41;3.07;;;1.20;;
10491;SDS011;5293;51.464;-2.566;2023-04-01T08:37:52;2.63;;;1.40;;
10491;SDS011;5293;51.464;-2.566;2023-04-01T08:40:39;1.33;;;0.93;;
10491;SDS011;5293;51.464;-2.566;2023-04-01T08:52:09;4.63;;;1.00;;
10491;SDS011;5293;51.464;-2.566;2023-04-01T08:57:25;1.23;;;0.70;;
10491;SDS011;5293;51.464;-2.566;2023-04-01T09:13:48;1.37;;;0.80;;
10491;SDS011;5293;51.464;-2.566;2023-04-01T09:16:23;2.90;;;0.80;;
10491;SDS011;5293;51.464;-2.566;2023-04-01T09:21:46;1.40;;;1.03;;
10491;SDS011;5293;51.464;-2.566;2023-04-01T09:27:28;0.77;;;0.70;;
10491;SDS011;5293;51.464;-2.566;2023-04-01T09:30:25;0.90;;;0.90;;
10491;SDS011;5293;51.464;-2.566;2023-04-01T09:35:47;0.70;;;0.70;;
10491;SDS011;5293;51.464;-2.566;2023-04-01T09:38:20;1.00;;;1.00;;
10491;SDS011;5293;51.464;-2.566;2023-04-01T09:41:06;0.80;;;0.80;;
10491;SDS011;5293;51.464;-2.566;2023-04-01T09:57:52;0.93;;;0.40;;
10491;SDS011;5293;51.464;-2.566;2023-04-01T10:14:15;4.80;;;3.17;;
10491;SDS011;5293;51.464;-2.566;2023-04-01T10:31:06;9.53;;;5.60;;
10491;SDS011;5293;51.464;-2.566;2023-04-01T10:36:55;5.80;;;4.27;;
10491;SDS011;5293;51.464;-2.566;2023-04-01T11:15:41;3.73;;;3.10;;
10491;SDS011;5293;51.464;-2.566;2023-04-01T11:27:52;5.60;;;4.50;;
10491;SDS011;5293;51.464;-2.566;2023-04-01T11:33:03;6.20;;;4.70;;
10491;SDS011;5293;51.464;-2.566;2023-04-01T11:38:26;8.20;;;5.27;;
10491;SDS011;5293;51.464;-2.566;2023-04-01T11:41:15;8.60;;;5.20;;
10491;SDS011;5293;51.464;-2.566;2023-04-01T11:44:29;8.40;;;5.90;;
10491;SDS011;5293;51.464;-2.566;2023-04-01T12:17:36;16.50;;;9.57;;
10491;SDS011;5293;51.464;-2.566;2023-04-01T12:22:43;13.50;;;8.90;;
10491;SDS011;5293;51.464;-2.566;2023-04-01T12:36:25;11.07;;;7.67;;
10491;SDS011;5293;51.464;-2.566;2023-04-01T12:42:14;10.10;;;7.30;;
10491;SDS011;5293;51.464;-2.566;2023-04-01T12:56:38;7.87;;;6.27;;
10491;SDS011;5293;51.464;-2.566;2023-04-01T13:02:11;9.27;;;6.70;;
10491;SDS011;5293;51.464;-2.566;2023-04-01T13:04:47;10.13;;;6.37;;
10491;SDS011;5293;51.464;-2.566;2023-04-01T13:07:26;9.07;;;6.20;;
10491;SDS011;5293;51.464;-2.566;2023-04-01T13:15:52;7.83;;;5.40;;
10491;SDS011;5293;51.464;-2.566;2023-04-01T13:18:28;7.43;;;5.97;;
10491;SDS011;5293;51.464;-2.566;2023-04-01T13:29:25;7.20;;;5.03;;
10491;SDS011;5293;51.464;-2.566;2023-04-01T13:32:09;7.43;;;4.63;;
10491;SDS011;5293;51.464;-2.566;2023-04-01T13:34:42;8.70;;;4.90;;
10491;SDS011;5293;51.464;-2.566;2023-04-01T13:40:26;5.23;;;4.47;;
10491;SDS011;5293;51.464;-2.566;2023-04-01T14:02:36;4.83;;;4.10;;
10491;SDS011;5293;51.464;-2.566;2023-04-01T14:05:09;4.73;;;3.87;;
10491;SDS011;5293;51.464;-2.566;2023-04-01T14:08:06;5.17;;;3.83;;
10491;SDS011;5293;51.464;-2.566;2023-04-01T14:25:47;4.37;;;3.50;;
10491;SDS011;5293;51.464;-2.566;2023-04-01T14:28:29;4.00;;;3.60;;
10491;SDS011;5293;51.464;-2.566;2023-04-01T14:37:15;4.10;;;2.90;;
10491;SDS011;5293;51.464;-2.566;2023-04-01T14:50:55;5.60;;;2.80;;
10491;SDS011;5293;51.464;-2.566;2023-04-01T14:53:29;3.97;;;2.47;;
10491;SDS011;5293;51.464;-2.566;2023-04-01T14:56:03;4.03;;;3.30;;
10491;SDS011;5293;51.464;-2.566;2023-04-01T14:58:41;4.87;;;3.17;;
10491;SDS011;5293;51.464;-2.566;2023-04-01T15:01:17;4.47;;;2.97;;
10491;SDS011;5293;51.464;-2.566;2023-04-01T15:12:12;1.80;;;1.60;;
10491;SDS011;5293;51.464;-2.566;2023-04-01T15:23:40;2.40;;;2.20;;
10491;SDS011;5293;51.464;-2.566;2023-04-01T15:26:25;1.93;;;1.60;;
10491;SDS011;5293;51.464;-2.566;2023-04-01T15:32:01;2.13;;;1.87;;
10491;SDS011;5293;51.464;-2.566;2023-04-01T15:42:53;2.23;;;1.30;;
10491;SDS011;5293;51.464;-2.566;2023-04-01T15:51:10;1.30;;;1.20;;
10491;SDS011;5293;51.464;-2.566;2023-04-01T16:02:47;2.03;;;1.30;;
10491;SDS011;5293;51.464;-2.566;2023-04-01T16:07:47;0.70;;;0.70;;
10491;SDS011;5293;51.464;-2.566;2023-04-01T16:20:57;1.33;;;0.83;;
10491;SDS011;5293;51.464;-2.566;2023-04-01T16:23:55;1.23;;;1.10;;
10491;SDS011;5293;51.464;-2.566;2023-04-01T16:46:16;1.43;;;1.30;;
10491;SDS011;5293;51.464;-2.566;2023-04-01T16:48:50;4.13;;;1.50;;
10491;SDS011;5293;51.464;-2.566;2023-04-01T16:51:41;2.33;;;1.70;;
10491;SDS011;5293;51.464;-2.566;2023-04-01T16:54:26;1.87;;;1.47;;
10491;SDS011;5293;51.464;-2.566;2023-04-01T16:57:03;2.00;;;1.80;;
10491;SDS011;5293;51.464;-2.566;2023-04-01T17:02:38;1.80;;;1.70;;
10491;SDS011;5293;51.464;-2.566;2023-04-01T17:05:13;1.67;;;1.40;;
10491;SDS011;5293;51.464;-2.566;2023-04-01T17:13:40;1.53;;;1.43;;
10491;SDS011;5293;51.464;-2.566;2023-04-01T17:19:05;3.03;;;1.53;;
10491;SDS011;5293;51.464;-2.566;2023-04-01T17:22:04;1.10;;;1.10;;
10491;SDS011;5293;51.464;-2.566;2023-04-01T17:24:46;1.87;;;1.13;;
10491;SDS011;5293;51.464;-2.566;2023-04-01T17:33:24;1.70;;;1.07;;
10491;SDS011;5293;51.464;-2.566;2023-04-01T17:36:37;2.67;;;1.40;;
10491;SDS011;5293;51.464;-2.566;2023-04-01T17:39:20;4.80;;;1.10;;
10491;SDS011;5293;51.464;-2.566;2023-04-01T17:44:45;4.40;;;1.50;;
10491;SDS011;5293;51.464;-2.566;2023-04-01T17:52:53;1.50;;;1.00;;
10491;SDS011;5293;51.464;-2.566;2023-04-01T17:58:28;1.20;;;1.00;;
10491;SDS011;5293;51.464;-2.566;2023-04-01T18:04:08;2.33;;;1.17;;
10491;SDS011;5293;51.464;-2.566;2023-04-01T18:12:17;0.83;;;0.83;;
10491;SDS011;5293;51.464;-2.566;2023-04-01T18:15:02;2.40;;;0.90;;
10491;SDS011;5293;51.464;-2.566;2023-04-01T18:20:26;1.67;;;1.20;;
10491;SDS011;5293;51.464;-2.566;2023-04-01T18:23:00;1.07;;;0.97;;
10491;SDS011;5293;51.464;-2.566;2023-04-01T18:25:49;1.07;;;0.93;;
10491;SDS011;5293;51.464;-2.566;2023-04-01T18:28:21;1.93;;;0.87;;
10491;SDS011;5293;51.464;-2.566;2023-04-01T18:41:36;4.90;;;1.60;;
10491;SDS011;5293;51.464;-2.566;2023-04-01T18:47:08;1.90;;;1.80;;
10491;SDS011;5293;51.464;-2.566;2023-04-01T18:52:42;2.97;;;2.10;;
10491;SDS011;5293;51.464;-2.566;2023-04-01T18:55:21;3.40;;;2.20;;
10491;SDS011;5293;51.464;-2.566;2023-04-01T19:01:04;1.77;;;1.60;;
10491;SDS011;5293;51.464;-2.566;2023-04-01T19:10:24;2.10;;;1.70;;
10491;SDS011;5293;51.464;-2.566;2023-04-01T19:15:44;3.17;;;1.77;;
10491;SDS011;5293;51.464;-2.566;2023-04-01T19:21:26;1.67;;;1.57;;
10491;SDS011;5293;51.464;-2.566;2023-04-01T19:34:43;1.40;;;1.30;;
10491;SDS011;5293;51.464;-2.566;2023-04-01T19:37:36;1.03;;;1.03;;
10491;SDS011;5293;51.464;-2.566;2023-04-01T19:42:52;1.90;;;0.93;;
10491;SDS011;5293;51.464;-2.566;2023-04-01T19:45:52;1.17;;;0.93;;
10491;SDS011;5293;51.464;-2.566;2023-04-01T19:51:03;0.70;;;0.70;;
10491;SDS011;5293;51.464;-2.566;2023-04-01T19:56:19;2.63;;;1.00;;
10491;SDS011;5293;51.464;-2.566;2023-04-01T19:58:52;2.10;;;0.90;;
10491;SDS011;5293;51.464;-2.566;2023-04-01T20:01:26;1.30;;;0.90;;
10491;SDS011;5293;51.464;-2.566;2023-04-01T20:04:04;0.90;;;0.90;;
10491;SDS011;5293;51.464;-2.566;2023-04-01T20:06:51;0.97;;;0.90;;
10491;SDS011;5293;51.464;-2.566;2023-04-01T20:18:08;1.37;;;0.90;;
10491;SDS011;5293;51.464;-2.566;2023-04-01T20:20:59;0.87;;;0.73;;
10491;SDS011;5293;51.464;-2.566;2023-04-01T20:23:39;1.17;;;1.10;;
10491;SDS011;5293;51.464;-2.566;2023-04-01T20:26:10;2.60;;;1.10;;
10491;SDS011;5293;51.464;-2.566;2023-04-01T20:28:48;2.40;;;1.37;;
10491;SDS011;5293;51.464;-2.566;2023-04-01T20:31:42;3.87;;;1.73;;
10491;SDS011;5293;51.464;-2.566;2023-04-01T20:45:27;2.40;;;2.13;;
10491;SDS011;5293;51.464;-2.566;2023-04-01T20:50:56;4.20;;;1.63;;
10491;SDS011;5293;51.464;-2.566;2023-04-01T20:56:06;3.27;;;1.80;;
10491;SDS011;5293;51.464;-2.566;2023-04-01T20:58:43;1.77;;;1.67;;
10491;SDS011;5293;51.464;-2.566;2023-04-01T21:06:35;1.60;;;1.50;;
10491;SDS011;5293;51.464;-2.566;2023-04-01T21:25:45;1.30;;;1.27;;
10491;SDS011;5293;51.464;-2.566;2023-04-01T21:28:43;3.00;;;1.70;;
10491;SDS011;5293;51.464;-2.566;2023-04-01T21:31:50;2.97;;;1.57;;
10491;SDS011;5293;51.464;-2.566;2023-04-01T21:34:55;1.77;;;1.63;;
10491;SDS011;5293;51.464;-2.566;2023-04-01T21:37:59;1.93;;;1.70;;
10491;SDS011;5293;51.464;-2.566;2023-04-01T21:43:09;5.30;;;1.87;;
10491;SDS011;5293;51.464;-2.566;2023-04-01T21:51:25;2.60;;;1.80;;
10491;SDS011;5293;51.464;-2.566;2023-04-01T22:19:40;2.17;;;1.50;;
10491;SDS011;5293;51.464;-2.566;2023-04-01T22:32:48;3.10;;;1.27;;
10491;SDS011;5293;51.464;-2.566;2023-04-01T22:43:37;2.10;;;1.90;;
10491;SDS011;5293;51.464;-2.566;2023-04-01T22:48:44;2.90;;;2.00;;
10491;SDS011;5293;51.464;-2.566;2023-04-01T22:51:44;3.53;;;1.77;;
10491;SDS011;5293;51.464;-2.566;2023-04-01T22:54:34;3.53;;;1.63;;
10491;SDS011;5293;51.464;-2.566;2023-04-01T22:57:10;2.37;;;2.00;;
10491;SDS011;5293;51.464;-2.566;2023-04-01T22:59:58;4.33;;;1.80;;
10491;SDS011;5293;51.464;-2.566;2023-04-01T23:02:30;1.67;;;1.57;;
10491;SDS011;5293;51.464;-2.566;2023-04-01T23:05:00;3.37;;;1.73;;
10491;SDS011;5293;51.464;-2.566;2023-04-01T23:07:45;1.80;;;1.70;;
10491;SDS011;5293;51.464;-2.566;2023-04-01T23:13:04;3.57;;;2.30;;
10491;SDS011;5293;51.464;-2.566;2023-04-01T23:15:37;2.13;;;1.80;;
10491;SDS011;5293;51.464;-2.566;2023-04-01T23:18:15;1.90;;;1.70;;
10491;SDS011;5293;51.464;-2.566;2023-04-01T23:21:06;2.10;;;1.90;;
10491;SDS011;5293;51.464;-2.566;2023-04-01T23:26:30;3.43;;;2.03;;
10491;SDS011;5293;51.464;-2.566;2023-04-01T23:29:01;4.00;;;1.93;;
10491;SDS011;5293;51.464;-2.566;2023-04-01T23:31:32;2.90;;;2.17;;
10491;SDS011;5293;51.464;-2.566;2023-04-01T23:34:02;2.73;;;2.10;;
10491;SDS011;5293;51.464;-2.566;2023-04-01T23:36:36;2.67;;;2.47;;
10491;SDS011;5293;51.464;-2.566;2023-04-01T23:39:05;2.70;;;2.50;;
10491;SDS011;5293;51.464;-2.566;2023-04-01T23:41:39;3.07;;;2.60;;
10491;SDS011;5293;51.464;-2.566;2023-04-01T23:44:09;3.40;;;2.43;;
10491;SDS011;5293;51.464;-2.566;2023-04-01T23:46:38;4.03;;;2.43;;
10491;SDS011;5293;51.464;-2.566;2023-04-01T23:49:06;3.90;;;2.43;;
10491;SDS011;5293;51.464;-2.566;2023-04-01T23:52:22;4.27;;;2.60;;
10491;SDS011;5293;51.464;-2.566;2023-04-01T23:54:57;3.40;;;2.07;;
10491;SDS011;5293;51.464;-2.566;2023-04-01T23:57:33;2.73;;;2.20;;
